sensor_id;sensor_type;location;lat;lon;timestamp;P1;durP1;ratioP1;P2;durP2;ratioP2
69260;SDS011;56378;52.404;20.816;2022-12-07T00:01:39;39.08;;;17.92;;
69260;SDS011;56378;52.404;20.816;2022-12-07T00:04:07;36.45;;;15.45;;
69260;SDS011;56378;52.404;20.816;2022-12-07T00:06:35;38.03;;;16.17;;
69260;SDS011;56378;52.404;20.816;2022-12-07T00:09:06;31.35;;;14.52;;
69260;SDS011;56378;52.404;20.816;2022-12-07T00:11:34;33.42;;;14.23;;
69260;SDS011;56378;52.404;20.816;2022-12-07T00:14:02;32.87;;;14.47;;
69260;SDS011;56378;52.404;20.816;2022-12-07T00:16:31;32.95;;;14.60;;
69260;SDS011;56378;52.404;20.816;2022-12-07T00:18:57;31.85;;;13.55;;
69260;SDS011;56378;52.404;20.816;2022-12-07T00:21:24;27.77;;;13.70;;
69260;SDS011;56378;52.404;20.816;2022-12-07T00:23:52;31.63;;;13.98;;
69260;SDS011;56378;52.404;20.816;2022-12-07T00:26:20;34.70;;;14.32;;
69260;SDS011;56378;52.404;20.816;2022-12-07T00:28:48;29.80;;;12.73;;
69260;SDS011;56378;52.404;20.816;2022-12-07T00:31:16;32.90;;;14.85;;
69260;SDS011;56378;52.404;20.816;2022-12-07T00:33:43;32.63;;;14.75;;
69260;SDS011;56378;52.404;20.816;2022-12-07T00:36:10;35.90;;;15.53;;
69260;SDS011;56378;52.404;20.816;2022-12-07T00:38:39;32.42;;;14.45;;
69260;SDS011;56378;52.404;20.816;2022-12-07T00:41:06;29.52;;;13.02;;
69260;SDS011;56378;52.404;20.816;2022-12-07T00:43:35;28.27;;;12.40;;
69260;SDS011;56378;52.404;20.816;2022-12-07T00:46:01;25.63;;;11.77;;
69260;SDS011;56378;52.404;20.816;2022-12-07T00:48:26;27.47;;;12.23;;
69260;SDS011;56378;52.404;20.816;2022-12-07T00:50:52;26.02;;;11.05;;
69260;SDS011;56378;52.404;20.816;2022-12-07T00:53:18;25.77;;;11.30;;
69260;SDS011;56378;52.404;20.816;2022-12-07T00:55:44;27.57;;;11.70;;
69260;SDS011;56378;52.404;20.816;2022-12-07T00:58:10;27.90;;;12.23;;
69260;SDS011;56378;52.404;20.816;2022-12-07T01:00:37;26.65;;;11.65;;
69260;SDS011;56378;52.404;20.816;2022-12-07T01:03:04;24.48;;;11.82;;
69260;SDS011;56378;52.404;20.816;2022-12-07T01:05:30;24.55;;;11.52;;
69260;SDS011;56378;52.404;20.816;2022-12-07T01:07:56;24.15;;;11.43;;
69260;SDS011;56378;52.404;20.816;2022-12-07T01:10:22;26.63;;;11.02;;
69260;SDS011;56378;52.404;20.816;2022-12-07T01:12:47;29.88;;;12.73;;
69260;SDS011;56378;52.404;20.816;2022-12-07T01:15:13;28.25;;;12.05;;
69260;SDS011;56378;52.404;20.816;2022-12-07T01:17:39;30.67;;;12.33;;
69260;SDS011;56378;52.404;20.816;2022-12-07T01:20:05;31.95;;;13.02;;
69260;SDS011;56378;52.404;20.816;2022-12-07T01:22:31;31.23;;;12.80;;
69260;SDS011;56378;52.404;20.816;2022-12-07T01:25:06;27.05;;;12.10;;
69260;SDS011;56378;52.404;20.816;2022-12-07T01:27:36;29.92;;;12.52;;
69260;SDS011;56378;52.404;20.816;2022-12-07T01:30:02;27.98;;;12.25;;
69260;SDS011;56378;52.404;20.816;2022-12-07T01:32:29;30.60;;;12.93;;
69260;SDS011;56378;52.404;20.816;2022-12-07T01:34:55;35.07;;;13.43;;
69260;SDS011;56378;52.404;20.816;2022-12-07T01:37:21;29.10;;;11.93;;
69260;SDS011;56378;52.404;20.816;2022-12-07T01:39:50;31.97;;;12.77;;
69260;SDS011;56378;52.404;20.816;2022-12-07T01:42:17;31.58;;;12.35;;
69260;SDS011;56378;52.404;20.816;2022-12-07T01:47:44;31.40;;;12.25;;
69260;SDS011;56378;52.404;20.816;2022-12-07T01:50:13;31.27;;;13.50;;
69260;SDS011;56378;52.404;20.816;2022-12-07T01:52:39;32.40;;;13.38;;
69260;SDS011;56378;52.404;20.816;2022-12-07T01:55:07;33.72;;;13.27;;
69260;SDS011;56378;52.404;20.816;2022-12-07T01:57:36;30.23;;;12.65;;
69260;SDS011;56378;52.404;20.816;2022-12-07T02:00:11;34.83;;;13.95;;
69260;SDS011;56378;52.404;20.816;2022-12-07T02:02:41;34.22;;;13.20;;
69260;SDS011;56378;52.404;20.816;2022-12-07T02:05:17;28.00;;;12.40;;
69260;SDS011;56378;52.404;20.816;2022-12-07T02:07:44;34.67;;;12.93;;
69260;SDS011;56378;52.404;20.816;2022-12-07T02:10:13;30.15;;;12.60;;
69260;SDS011;56378;52.404;20.816;2022-12-07T02:12:40;31.88;;;13.15;;
69260;SDS011;56378;52.404;20.816;2022-12-07T02:15:07;28.73;;;12.45;;
69260;SDS011;56378;52.404;20.816;2022-12-07T02:20:41;27.52;;;11.60;;
69260;SDS011;56378;52.404;20.816;2022-12-07T02:31:14;28.88;;;12.20;;
69260;SDS011;56378;52.404;20.816;2022-12-07T02:33:46;29.60;;;12.05;;
69260;SDS011;56378;52.404;20.816;2022-12-07T02:36:20;29.95;;;12.57;;
69260;SDS011;56378;52.404;20.816;2022-12-07T02:39:05;30.30;;;12.18;;
69260;SDS011;56378;52.404;20.816;2022-12-07T02:41:48;25.13;;;10.93;;
69260;SDS011;56378;52.404;20.816;2022-12-07T02:44:23;24.98;;;10.65;;
69260;SDS011;56378;52.404;20.816;2022-12-07T02:47:02;31.65;;;11.50;;
69260;SDS011;56378;52.404;20.816;2022-12-07T02:49:30;29.85;;;10.25;;
69260;SDS011;56378;52.404;20.816;2022-12-07T02:51:57;24.65;;;10.05;;
69260;SDS011;56378;52.404;20.816;2022-12-07T02:54:23;26.77;;;10.50;;
69260;SDS011;56378;52.404;20.816;2022-12-07T02:56:50;23.48;;;9.85;;
69260;SDS011;56378;52.404;20.816;2022-12-07T03:15:46;20.58;;;9.25;;
69260;SDS011;56378;52.404;20.816;2022-12-07T03:18:53;21.02;;;9.27;;
69260;SDS011;56378;52.404;20.816;2022-12-07T03:21:27;20.95;;;8.80;;
69260;SDS011;56378;52.404;20.816;2022-12-07T03:23:59;21.25;;;8.65;;
69260;SDS011;56378;52.404;20.816;2022-12-07T03:26:30;21.70;;;8.70;;
69260;SDS011;56378;52.404;20.816;2022-12-07T03:29:02;17.67;;;8.13;;
69260;SDS011;56378;52.404;20.816;2022-12-07T03:31:38;18.00;;;7.88;;
69260;SDS011;56378;52.404;20.816;2022-12-07T03:34:11;18.92;;;7.97;;
69260;SDS011;56378;52.404;20.816;2022-12-07T03:36:40;18.13;;;7.90;;
69260;SDS011;56378;52.404;20.816;2022-12-07T03:41:52;19.13;;;8.20;;
69260;SDS011;56378;52.404;20.816;2022-12-07T03:44:19;20.55;;;8.20;;
69260;SDS011;56378;52.404;20.816;2022-12-07T03:54:29;18.63;;;7.88;;
69260;SDS011;56378;52.404;20.816;2022-12-07T03:56:59;18.13;;;8.00;;
69260;SDS011;56378;52.404;20.816;2022-12-07T03:59:27;15.48;;;7.72;;
69260;SDS011;56378;52.404;20.816;2022-12-07T04:01:55;16.27;;;7.75;;
69260;SDS011;56378;52.404;20.816;2022-12-07T04:04:23;14.95;;;6.70;;
69260;SDS011;56378;52.404;20.816;2022-12-07T04:06:50;19.90;;;8.00;;
69260;SDS011;56378;52.404;20.816;2022-12-07T04:09:16;18.48;;;7.88;;
69260;SDS011;56378;52.404;20.816;2022-12-07T04:11:42;17.35;;;7.18;;
69260;SDS011;56378;52.404;20.816;2022-12-07T04:14:08;19.30;;;7.63;;
69260;SDS011;56378;52.404;20.816;2022-12-07T04:16:49;18.60;;;7.38;;
69260;SDS011;56378;52.404;20.816;2022-12-07T04:19:17;16.90;;;7.47;;
69260;SDS011;56378;52.404;20.816;2022-12-07T04:21:45;19.17;;;7.50;;
69260;SDS011;56378;52.404;20.816;2022-12-07T04:24:11;18.83;;;7.57;;
69260;SDS011;56378;52.404;20.816;2022-12-07T04:26:38;13.77;;;6.45;;
69260;SDS011;56378;52.404;20.816;2022-12-07T04:29:04;14.55;;;6.63;;
69260;SDS011;56378;52.404;20.816;2022-12-07T04:31:29;16.37;;;6.60;;
69260;SDS011;56378;52.404;20.816;2022-12-07T04:33:55;14.85;;;6.80;;
69260;SDS011;56378;52.404;20.816;2022-12-07T04:36:21;15.43;;;6.63;;
69260;SDS011;56378;52.404;20.816;2022-12-07T04:38:47;16.58;;;6.13;;
69260;SDS011;56378;52.404;20.816;2022-12-07T04:41:13;15.13;;;6.18;;
69260;SDS011;56378;52.404;20.816;2022-12-07T04:43:39;14.10;;;6.30;;
69260;SDS011;56378;52.404;20.816;2022-12-07T04:46:05;13.25;;;6.15;;
69260;SDS011;56378;52.404;20.816;2022-12-07T04:48:30;15.50;;;6.17;;
69260;SDS011;56378;52.404;20.816;2022-12-07T04:50:56;16.02;;;6.63;;
69260;SDS011;56378;52.404;20.816;2022-12-07T04:53:22;14.97;;;6.00;;
69260;SDS011;56378;52.404;20.816;2022-12-07T04:55:48;13.15;;;5.57;;
69260;SDS011;56378;52.404;20.816;2022-12-07T04:58:14;12.93;;;5.65;;
69260;SDS011;56378;52.404;20.816;2022-12-07T05:00:39;13.60;;;5.63;;
69260;SDS011;56378;52.404;20.816;2022-12-07T05:03:05;12.35;;;5.38;;
69260;SDS011;56378;52.404;20.816;2022-12-07T05:05:31;14.23;;;5.55;;
69260;SDS011;56378;52.404;20.816;2022-12-07T05:07:57;14.27;;;5.85;;
69260;SDS011;56378;52.404;20.816;2022-12-07T05:10:22;12.63;;;5.33;;
69260;SDS011;56378;52.404;20.816;2022-12-07T05:12:48;14.07;;;5.32;;
69260;SDS011;56378;52.404;20.816;2022-12-07T05:15:14;12.20;;;5.00;;
69260;SDS011;56378;52.404;20.816;2022-12-07T05:17:41;14.45;;;5.32;;
69260;SDS011;56378;52.404;20.816;2022-12-07T05:20:07;13.05;;;5.35;;
69260;SDS011;56378;52.404;20.816;2022-12-07T05:22:33;12.95;;;5.40;;
69260;SDS011;56378;52.404;20.816;2022-12-07T05:24:59;13.07;;;5.57;;
69260;SDS011;56378;52.404;20.816;2022-12-07T05:27:25;11.65;;;5.20;;
69260;SDS011;56378;52.404;20.816;2022-12-07T05:29:51;12.50;;;5.13;;
69260;SDS011;56378;52.404;20.816;2022-12-07T05:32:17;12.37;;;4.90;;
69260;SDS011;56378;52.404;20.816;2022-12-07T05:34:42;13.02;;;5.55;;
69260;SDS011;56378;52.404;20.816;2022-12-07T05:37:08;13.50;;;5.70;;
69260;SDS011;56378;52.404;20.816;2022-12-07T05:39:34;12.88;;;5.43;;
69260;SDS011;56378;52.404;20.816;2022-12-07T05:41:59;13.50;;;5.37;;
69260;SDS011;56378;52.404;20.816;2022-12-07T05:44:41;13.48;;;5.80;;
69260;SDS011;56378;52.404;20.816;2022-12-07T05:47:08;19.73;;;7.50;;
69260;SDS011;56378;52.404;20.816;2022-12-07T05:49:35;26.10;;;8.82;;
69260;SDS011;56378;52.404;20.816;2022-12-07T05:52:01;27.67;;;9.77;;
69260;SDS011;56378;52.404;20.816;2022-12-07T05:54:28;30.05;;;9.93;;
69260;SDS011;56378;52.404;20.816;2022-12-07T05:56:53;22.33;;;9.55;;
69260;SDS011;56378;52.404;20.816;2022-12-07T05:59:20;17.85;;;8.18;;
69260;SDS011;56378;52.404;20.816;2022-12-07T06:01:52;18.73;;;7.57;;
69260;SDS011;56378;52.404;20.816;2022-12-07T06:04:26;20.67;;;9.05;;
69260;SDS011;56378;52.404;20.816;2022-12-07T06:06:55;21.48;;;8.55;;
69260;SDS011;56378;52.404;20.816;2022-12-07T06:09:21;15.85;;;7.30;;
69260;SDS011;56378;52.404;20.816;2022-12-07T06:11:48;15.75;;;6.72;;
69260;SDS011;56378;52.404;20.816;2022-12-07T06:14:32;17.00;;;7.20;;
69260;SDS011;56378;52.404;20.816;2022-12-07T06:16:58;16.42;;;6.80;;
69260;SDS011;56378;52.404;20.816;2022-12-07T06:19:24;16.52;;;7.35;;
69260;SDS011;56378;52.404;20.816;2022-12-07T06:21:50;16.15;;;6.70;;
69260;SDS011;56378;52.404;20.816;2022-12-07T06:24:16;16.63;;;7.43;;
69260;SDS011;56378;52.404;20.816;2022-12-07T06:26:43;15.95;;;6.55;;
69260;SDS011;56378;52.404;20.816;2022-12-07T06:29:09;16.02;;;7.45;;
69260;SDS011;56378;52.404;20.816;2022-12-07T06:31:35;17.90;;;7.23;;
69260;SDS011;56378;52.404;20.816;2022-12-07T06:34:03;18.42;;;7.72;;
69260;SDS011;56378;52.404;20.816;2022-12-07T06:36:31;18.27;;;7.20;;
69260;SDS011;56378;52.404;20.816;2022-12-07T06:38:57;17.17;;;7.40;;
69260;SDS011;56378;52.404;20.816;2022-12-07T06:41:23;15.50;;;6.67;;
69260;SDS011;56378;52.404;20.816;2022-12-07T06:43:49;17.92;;;7.32;;
69260;SDS011;56378;52.404;20.816;2022-12-07T06:46:15;16.23;;;7.32;;
69260;SDS011;56378;52.404;20.816;2022-12-07T06:48:42;16.65;;;7.20;;
69260;SDS011;56378;52.404;20.816;2022-12-07T06:51:08;17.35;;;6.95;;
69260;SDS011;56378;52.404;20.816;2022-12-07T06:53:35;15.90;;;7.23;;
69260;SDS011;56378;52.404;20.816;2022-12-07T06:56:02;14.95;;;6.28;;
69260;SDS011;56378;52.404;20.816;2022-12-07T06:58:28;16.25;;;7.03;;
69260;SDS011;56378;52.404;20.816;2022-12-07T07:00:54;18.92;;;7.72;;
69260;SDS011;56378;52.404;20.816;2022-12-07T07:03:20;21.57;;;7.57;;
69260;SDS011;56378;52.404;20.816;2022-12-07T07:05:46;23.77;;;10.02;;
69260;SDS011;56378;52.404;20.816;2022-12-07T07:08:12;29.67;;;10.75;;
69260;SDS011;56378;52.404;20.816;2022-12-07T07:10:38;31.83;;;12.43;;
69260;SDS011;56378;52.404;20.816;2022-12-07T07:13:04;31.38;;;13.30;;
69260;SDS011;56378;52.404;20.816;2022-12-07T07:15:31;34.72;;;13.70;;
69260;SDS011;56378;52.404;20.816;2022-12-07T07:17:57;36.08;;;13.07;;
69260;SDS011;56378;52.404;20.816;2022-12-07T07:20:22;33.53;;;12.67;;
69260;SDS011;56378;52.404;20.816;2022-12-07T07:22:48;27.20;;;10.88;;
69260;SDS011;56378;52.404;20.816;2022-12-07T07:25:15;17.83;;;7.55;;
69260;SDS011;56378;52.404;20.816;2022-12-07T07:27:41;20.70;;;8.13;;
69260;SDS011;56378;52.404;20.816;2022-12-07T07:30:07;20.05;;;7.93;;
69260;SDS011;56378;52.404;20.816;2022-12-07T07:32:33;18.88;;;8.10;;
69260;SDS011;56378;52.404;20.816;2022-12-07T07:34:59;20.73;;;8.33;;
69260;SDS011;56378;52.404;20.816;2022-12-07T07:37:25;16.15;;;6.85;;
69260;SDS011;56378;52.404;20.816;2022-12-07T07:39:51;14.45;;;6.63;;
69260;SDS011;56378;52.404;20.816;2022-12-07T07:42:17;16.97;;;7.27;;
69260;SDS011;56378;52.404;20.816;2022-12-07T07:44:43;15.82;;;7.07;;
69260;SDS011;56378;52.404;20.816;2022-12-07T07:47:09;16.02;;;6.60;;
69260;SDS011;56378;52.404;20.816;2022-12-07T07:49:35;16.07;;;6.20;;
69260;SDS011;56378;52.404;20.816;2022-12-07T07:52:00;15.15;;;6.03;;
69260;SDS011;56378;52.404;20.816;2022-12-07T07:54:26;14.60;;;6.90;;
69260;SDS011;56378;52.404;20.816;2022-12-07T07:56:52;15.57;;;6.38;;
69260;SDS011;56378;52.404;20.816;2022-12-07T07:59:18;13.82;;;6.20;;
69260;SDS011;56378;52.404;20.816;2022-12-07T08:01:43;12.30;;;5.53;;
69260;SDS011;56378;52.404;20.816;2022-12-07T08:04:09;15.48;;;6.07;;
69260;SDS011;56378;52.404;20.816;2022-12-07T08:06:35;16.60;;;7.00;;
69260;SDS011;56378;52.404;20.816;2022-12-07T08:09:01;14.43;;;6.63;;
69260;SDS011;56378;52.404;20.816;2022-12-07T08:11:28;13.48;;;6.10;;
69260;SDS011;56378;52.404;20.816;2022-12-07T08:13:54;14.47;;;6.50;;
69260;SDS011;56378;52.404;20.816;2022-12-07T08:16:19;14.18;;;6.10;;
69260;SDS011;56378;52.404;20.816;2022-12-07T08:18:45;13.87;;;6.33;;
69260;SDS011;56378;52.404;20.816;2022-12-07T08:21:12;13.98;;;6.43;;
69260;SDS011;56378;52.404;20.816;2022-12-07T08:23:39;13.82;;;6.13;;
69260;SDS011;56378;52.404;20.816;2022-12-07T08:26:07;14.48;;;5.93;;
69260;SDS011;56378;52.404;20.816;2022-12-07T08:28:35;17.45;;;6.38;;
69260;SDS011;56378;52.404;20.816;2022-12-07T08:31:03;15.20;;;6.70;;
69260;SDS011;56378;52.404;20.816;2022-12-07T08:33:31;15.15;;;6.43;;
69260;SDS011;56378;52.404;20.816;2022-12-07T08:36:07;15.70;;;6.32;;
69260;SDS011;56378;52.404;20.816;2022-12-07T08:38:35;17.95;;;6.68;;
69260;SDS011;56378;52.404;20.816;2022-12-07T08:41:01;19.95;;;6.93;;
69260;SDS011;56378;52.404;20.816;2022-12-07T08:43:28;17.25;;;6.45;;
69260;SDS011;56378;52.404;20.816;2022-12-07T08:48:49;17.17;;;7.00;;
69260;SDS011;56378;52.404;20.816;2022-12-07T08:51:37;17.65;;;7.00;;
69260;SDS011;56378;52.404;20.816;2022-12-07T08:54:04;19.27;;;7.28;;
69260;SDS011;56378;52.404;20.816;2022-12-07T08:56:33;20.42;;;7.93;;
69260;SDS011;56378;52.404;20.816;2022-12-07T08:58:59;23.38;;;8.95;;
69260;SDS011;56378;52.404;20.816;2022-12-07T09:01:25;22.63;;;8.10;;
69260;SDS011;56378;52.404;20.816;2022-12-07T09:03:52;20.77;;;8.27;;
69260;SDS011;56378;52.404;20.816;2022-12-07T09:06:17;20.58;;;7.95;;
69260;SDS011;56378;52.404;20.816;2022-12-07T09:08:45;20.20;;;8.23;;
69260;SDS011;56378;52.404;20.816;2022-12-07T09:11:13;19.87;;;7.73;;
69260;SDS011;56378;52.404;20.816;2022-12-07T09:13:39;21.88;;;8.50;;
69260;SDS011;56378;52.404;20.816;2022-12-07T09:16:05;20.37;;;8.27;;
69260;SDS011;56378;52.404;20.816;2022-12-07T09:18:31;20.23;;;7.72;;
69260;SDS011;56378;52.404;20.816;2022-12-07T09:20:57;19.52;;;8.18;;
69260;SDS011;56378;52.404;20.816;2022-12-07T09:23:23;20.27;;;8.50;;
69260;SDS011;56378;52.404;20.816;2022-12-07T09:25:49;20.90;;;8.88;;
69260;SDS011;56378;52.404;20.816;2022-12-07T09:28:14;20.10;;;8.05;;
69260;SDS011;56378;52.404;20.816;2022-12-07T09:30:47;19.50;;;7.80;;
69260;SDS011;56378;52.404;20.816;2022-12-07T09:33:13;19.02;;;8.15;;
69260;SDS011;56378;52.404;20.816;2022-12-07T09:35:46;19.98;;;7.45;;
69260;SDS011;56378;52.404;20.816;2022-12-07T09:38:12;18.50;;;7.20;;
69260;SDS011;56378;52.404;20.816;2022-12-07T09:40:38;18.60;;;7.78;;
69260;SDS011;56378;52.404;20.816;2022-12-07T09:43:05;20.60;;;6.40;;
69260;SDS011;56378;52.404;20.816;2022-12-07T09:45:36;18.63;;;7.10;;
69260;SDS011;56378;52.404;20.816;2022-12-07T09:48:03;18.73;;;6.38;;
69260;SDS011;56378;52.404;20.816;2022-12-07T09:50:30;14.77;;;5.40;;
69260;SDS011;56378;52.404;20.816;2022-12-07T09:53:04;17.43;;;6.03;;
69260;SDS011;56378;52.404;20.816;2022-12-07T09:55:39;16.52;;;5.78;;
69260;SDS011;56378;52.404;20.816;2022-12-07T09:58:08;18.02;;;6.30;;
69260;SDS011;56378;52.404;20.816;2022-12-07T10:01:08;19.23;;;6.30;;
69260;SDS011;56378;52.404;20.816;2022-12-07T10:03:42;19.38;;;5.85;;
69260;SDS011;56378;52.404;20.816;2022-12-07T10:06:18;15.30;;;5.72;;
69260;SDS011;56378;52.404;20.816;2022-12-07T10:08:44;14.48;;;5.32;;
69260;SDS011;56378;52.404;20.816;2022-12-07T10:11:10;15.10;;;5.10;;
69260;SDS011;56378;52.404;20.816;2022-12-07T10:13:43;16.17;;;5.22;;
69260;SDS011;56378;52.404;20.816;2022-12-07T10:16:37;15.67;;;5.57;;
69260;SDS011;56378;52.404;20.816;2022-12-07T10:22:02;17.13;;;5.80;;
69260;SDS011;56378;52.404;20.816;2022-12-07T10:24:31;16.60;;;5.40;;
69260;SDS011;56378;52.404;20.816;2022-12-07T10:26:57;17.83;;;5.32;;
69260;SDS011;56378;52.404;20.816;2022-12-07T10:32:04;18.35;;;6.70;;
69260;SDS011;56378;52.404;20.816;2022-12-07T10:34:40;18.17;;;6.13;;
69260;SDS011;56378;52.404;20.816;2022-12-07T10:39:52;19.00;;;6.22;;
69260;SDS011;56378;52.404;20.816;2022-12-07T10:42:20;18.47;;;6.07;;
69260;SDS011;56378;52.404;20.816;2022-12-07T10:45:09;21.25;;;7.00;;
69260;SDS011;56378;52.404;20.816;2022-12-07T10:47:44;19.63;;;5.75;;
69260;SDS011;56378;52.404;20.816;2022-12-07T10:55:31;15.47;;;5.60;;
69260;SDS011;56378;52.404;20.816;2022-12-07T11:01:11;15.60;;;5.97;;
69260;SDS011;56378;52.404;20.816;2022-12-07T11:06:21;14.00;;;5.82;;
69260;SDS011;56378;52.404;20.816;2022-12-07T11:20:44;19.65;;;8.05;;
69260;SDS011;56378;52.404;20.816;2022-12-07T11:23:03;17.07;;;7.77;;
69260;SDS011;56378;52.404;20.816;2022-12-07T11:25:54;16.63;;;7.38;;
69260;SDS011;56378;52.404;20.816;2022-12-07T11:31:29;17.85;;;7.82;;
69260;SDS011;56378;52.404;20.816;2022-12-07T11:34:15;17.52;;;6.20;;
69260;SDS011;56378;52.404;20.816;2022-12-07T11:36:57;15.93;;;6.63;;
69260;SDS011;56378;52.404;20.816;2022-12-07T11:39:28;16.65;;;7.40;;
69260;SDS011;56378;52.404;20.816;2022-12-07T11:42:14;19.98;;;7.82;;
69260;SDS011;56378;52.404;20.816;2022-12-07T11:44:53;19.05;;;8.15;;
69260;SDS011;56378;52.404;20.816;2022-12-07T11:49:54;19.93;;;8.17;;
69260;SDS011;56378;52.404;20.816;2022-12-07T11:55:41;21.65;;;8.68;;
69260;SDS011;56378;52.404;20.816;2022-12-07T11:58:30;23.35;;;9.07;;
69260;SDS011;56378;52.404;20.816;2022-12-07T12:03:54;17.33;;;7.93;;
69260;SDS011;56378;52.404;20.816;2022-12-07T12:06:20;20.58;;;8.73;;
69260;SDS011;56378;52.404;20.816;2022-12-07T12:11:31;18.52;;;8.35;;
69260;SDS011;56378;52.404;20.816;2022-12-07T12:14:14;16.92;;;7.60;;
69260;SDS011;56378;52.404;20.816;2022-12-07T12:17:07;17.37;;;7.20;;
69260;SDS011;56378;52.404;20.816;2022-12-07T12:26:01;16.65;;;7.50;;
69260;SDS011;56378;52.404;20.816;2022-12-07T12:28:40;17.95;;;8.02;;
69260;SDS011;56378;52.404;20.816;2022-12-07T12:51:48;19.57;;;7.80;;
69260;SDS011;56378;52.404;20.816;2022-12-07T12:54:31;17.92;;;7.57;;
69260;SDS011;56378;52.404;20.816;2022-12-07T13:18:41;15.27;;;6.55;;
69260;SDS011;56378;52.404;20.816;2022-12-07T13:23:36;15.13;;;6.57;;
69260;SDS011;56378;52.404;20.816;2022-12-07T13:31:23;15.48;;;6.22;;
69260;SDS011;56378;52.404;20.816;2022-12-07T13:33:49;15.23;;;6.70;;
69260;SDS011;56378;52.404;20.816;2022-12-07T13:36:25;13.73;;;6.20;;
69260;SDS011;56378;52.404;20.816;2022-12-07T13:41:43;15.40;;;6.57;;
69260;SDS011;56378;52.404;20.816;2022-12-07T13:46:52;13.98;;;5.95;;
69260;SDS011;56378;52.404;20.816;2022-12-07T13:49:24;15.52;;;6.70;;
69260;SDS011;56378;52.404;20.816;2022-12-07T13:51:52;16.75;;;7.15;;
69260;SDS011;56378;52.404;20.816;2022-12-07T13:54:19;17.60;;;6.80;;
69260;SDS011;56378;52.404;20.816;2022-12-07T13:56:50;17.33;;;7.28;;
69260;SDS011;56378;52.404;20.816;2022-12-07T13:59:26;14.82;;;6.63;;
69260;SDS011;56378;52.404;20.816;2022-12-07T14:01:52;16.75;;;7.28;;
69260;SDS011;56378;52.404;20.816;2022-12-07T14:04:39;17.27;;;7.22;;
69260;SDS011;56378;52.404;20.816;2022-12-07T14:10:23;17.23;;;7.15;;
69260;SDS011;56378;52.404;20.816;2022-12-07T14:12:58;17.48;;;7.75;;
69260;SDS011;56378;52.404;20.816;2022-12-07T14:15:31;17.58;;;7.97;;
69260;SDS011;56378;52.404;20.816;2022-12-07T14:17:59;19.45;;;8.45;;
69260;SDS011;56378;52.404;20.816;2022-12-07T14:20:34;19.23;;;8.73;;
69260;SDS011;56378;52.404;20.816;2022-12-07T14:23:01;19.70;;;8.82;;
69260;SDS011;56378;52.404;20.816;2022-12-07T14:26:03;20.02;;;9.07;;
69260;SDS011;56378;52.404;20.816;2022-12-07T14:28:30;17.08;;;8.10;;
69260;SDS011;56378;52.404;20.816;2022-12-07T14:30:58;19.73;;;8.50;;
69260;SDS011;56378;52.404;20.816;2022-12-07T14:33:25;17.63;;;7.97;;
69260;SDS011;56378;52.404;20.816;2022-12-07T14:35:52;19.08;;;8.38;;
69260;SDS011;56378;52.404;20.816;2022-12-07T14:38:23;17.92;;;8.13;;
69260;SDS011;56378;52.404;20.816;2022-12-07T14:40:53;17.38;;;7.85;;
69260;SDS011;56378;52.404;20.816;2022-12-07T14:43:39;22.85;;;8.65;;
69260;SDS011;56378;52.404;20.816;2022-12-07T14:46:05;21.57;;;9.37;;
69260;SDS011;56378;52.404;20.816;2022-12-07T14:48:31;21.25;;;9.20;;
69260;SDS011;56378;52.404;20.816;2022-12-07T14:50:57;18.47;;;8.57;;
69260;SDS011;56378;52.404;20.816;2022-12-07T14:53:25;20.27;;;8.48;;
69260;SDS011;56378;52.404;20.816;2022-12-07T14:55:58;19.70;;;7.82;;
69260;SDS011;56378;52.404;20.816;2022-12-07T14:58:24;16.67;;;6.97;;
69260;SDS011;56378;52.404;20.816;2022-12-07T15:00:50;18.45;;;7.63;;
69260;SDS011;56378;52.404;20.816;2022-12-07T15:03:15;19.07;;;7.70;;
69260;SDS011;56378;52.404;20.816;2022-12-07T15:05:41;16.85;;;7.55;;
69260;SDS011;56378;52.404;20.816;2022-12-07T15:08:11;15.18;;;6.32;;
69260;SDS011;56378;52.404;20.816;2022-12-07T15:10:37;17.47;;;7.33;;
69260;SDS011;56378;52.404;20.816;2022-12-07T15:13:05;19.88;;;7.60;;
69260;SDS011;56378;52.404;20.816;2022-12-07T15:15:51;17.40;;;7.35;;
69260;SDS011;56378;52.404;20.816;2022-12-07T15:18:18;18.70;;;7.78;;
69260;SDS011;56378;52.404;20.816;2022-12-07T15:20:44;21.55;;;9.15;;
69260;SDS011;56378;52.404;20.816;2022-12-07T15:23:11;27.50;;;10.73;;
69260;SDS011;56378;52.404;20.816;2022-12-07T15:25:40;19.52;;;8.10;;
69260;SDS011;56378;52.404;20.816;2022-12-07T15:28:07;20.95;;;8.70;;
69260;SDS011;56378;52.404;20.816;2022-12-07T15:30:33;24.65;;;11.48;;
69260;SDS011;56378;52.404;20.816;2022-12-07T15:32:58;21.92;;;9.52;;
69260;SDS011;56378;52.404;20.816;2022-12-07T15:35:24;24.20;;;9.33;;
69260;SDS011;56378;52.404;20.816;2022-12-07T15:37:50;21.08;;;8.60;;
69260;SDS011;56378;52.404;20.816;2022-12-07T15:40:15;23.70;;;9.95;;
69260;SDS011;56378;52.404;20.816;2022-12-07T15:42:41;22.65;;;9.52;;
69260;SDS011;56378;52.404;20.816;2022-12-07T15:45:07;24.40;;;11.15;;
69260;SDS011;56378;52.404;20.816;2022-12-07T15:47:38;23.57;;;10.63;;
69260;SDS011;56378;52.404;20.816;2022-12-07T15:50:07;23.77;;;9.25;;
69260;SDS011;56378;52.404;20.816;2022-12-07T15:52:35;26.75;;;11.38;;
69260;SDS011;56378;52.404;20.816;2022-12-07T15:55:02;27.70;;;10.98;;
69260;SDS011;56378;52.404;20.816;2022-12-07T15:57:31;24.33;;;11.15;;
69260;SDS011;56378;52.404;20.816;2022-12-07T15:59:58;24.80;;;10.90;;
69260;SDS011;56378;52.404;20.816;2022-12-07T16:02:24;22.27;;;10.45;;
69260;SDS011;56378;52.404;20.816;2022-12-07T16:04:50;25.27;;;11.27;;
69260;SDS011;56378;52.404;20.816;2022-12-07T16:07:17;23.55;;;10.77;;
69260;SDS011;56378;52.404;20.816;2022-12-07T16:09:43;24.25;;;10.68;;
69260;SDS011;56378;52.404;20.816;2022-12-07T16:12:11;23.88;;;11.00;;
69260;SDS011;56378;52.404;20.816;2022-12-07T16:14:38;25.27;;;11.27;;
69260;SDS011;56378;52.404;20.816;2022-12-07T16:17:04;30.02;;;12.20;;
69260;SDS011;56378;52.404;20.816;2022-12-07T16:19:32;28.75;;;11.80;;
69260;SDS011;56378;52.404;20.816;2022-12-07T16:21:58;25.77;;;11.93;;
69260;SDS011;56378;52.404;20.816;2022-12-07T16:24:24;30.48;;;12.40;;
69260;SDS011;56378;52.404;20.816;2022-12-07T16:26:50;27.25;;;11.27;;
69260;SDS011;56378;52.404;20.816;2022-12-07T16:29:16;26.87;;;12.80;;
69260;SDS011;56378;52.404;20.816;2022-12-07T16:31:43;25.45;;;11.63;;
69260;SDS011;56378;52.404;20.816;2022-12-07T16:34:09;27.50;;;11.98;;
69260;SDS011;56378;52.404;20.816;2022-12-07T16:36:36;28.23;;;11.15;;
69260;SDS011;56378;52.404;20.816;2022-12-07T16:39:02;27.93;;;12.40;;
69260;SDS011;56378;52.404;20.816;2022-12-07T16:41:28;26.77;;;11.35;;
69260;SDS011;56378;52.404;20.816;2022-12-07T16:43:54;26.52;;;11.45;;
69260;SDS011;56378;52.404;20.816;2022-12-07T16:46:20;26.17;;;12.50;;
69260;SDS011;56378;52.404;20.816;2022-12-07T16:48:46;28.65;;;11.93;;
69260;SDS011;56378;52.404;20.816;2022-12-07T16:51:12;26.98;;;12.23;;
69260;SDS011;56378;52.404;20.816;2022-12-07T16:53:39;29.00;;;12.80;;
69260;SDS011;56378;52.404;20.816;2022-12-07T16:56:09;31.55;;;12.40;;
69260;SDS011;56378;52.404;20.816;2022-12-07T16:58:37;29.00;;;13.25;;
69260;SDS011;56378;52.404;20.816;2022-12-07T17:01:13;26.95;;;11.90;;
69260;SDS011;56378;52.404;20.816;2022-12-07T17:03:40;28.70;;;12.90;;